Time;durP1;ratioP1;P1;durP2;ratioP2;P2;SDS_P1;SDS_P2;PMS_P1;PMS_P2;Temp;Humidity;BMP_temperature;BMP_pressure;BME280_temperature;BME280_humidity;BME280_pressure;Samples;Min_cycle;Max_cycle;Signal;HPM_P1;HPM_P2
2022/03/29 00:01:58;;;;;;;20.90;12.88;;;13.60;99.90;;;;;;5026639;28;20069;-71
2022/03/29 00:04:24;;;;;;;20.38;12.05;;;13.60;99.90;;;;;;5017838;28;20080;-72
2022/03/29 00:06:53;;;;;;;20.23;12.30;;;13.50;99.90;;;;;;5018482;28;20034;-73
2022/03/29 00:09:19;;;;;;;22.70;13.32;;;13.50;99.90;;;;;;5033553;28;20107;-73
2022/03/29 00:11:44;;;;;;;27.30;12.80;;;13.60;99.90;;;;;;5018428;28;20034;-72
2022/03/29 00:14:12;;;;;;;20.73;12.40;;;13.50;99.90;;;;;;5015643;28;20042;-73
2022/03/29 00:16:39;;;;;;;20.05;11.93;;;13.50;99.90;;;;;;5031701;28;20053;-73
2022/03/29 00:19:06;;;;;;;19.35;11.90;;;13.50;99.90;;;;;;5003915;28;20446;-72
2022/03/29 00:21:32;;;;;;;20.40;11.73;;;13.40;99.90;;;;;;5032579;28;20501;-71
2022/03/29 00:23:59;;;;;;;17.27;11.05;;;13.40;99.90;;;;;;5021538;28;20049;-72
2022/03/29 00:26:25;;;;;;;22.10;12.40;;;13.40;99.90;;;;;;5014081;28;20040;-72
2022/03/29 00:28:51;;;;;;;18.00;12.02;;;13.40;99.90;;;;;;5030000;28;20025;-72
2022/03/29 00:31:19;;;;;;;21.00;12.15;;;13.40;99.90;;;;;;5018170;28;20128;-72
2022/03/29 00:33:46;;;;;;;18.02;10.43;;;13.40;99.90;;;;;;5014563;28;20088;-72
2022/03/29 00:36:13;;;;;;;17.38;10.20;;;13.40;99.90;;;;;;5020650;28;20094;-72
2022/03/29 00:38:38;;;;;;;16.17;10.18;;;13.40;99.90;;;;;;5012402;28;20029;-71
2022/03/29 00:41:04;;;;;;;16.88;10.38;;;13.40;99.90;;;;;;5016117;28;20033;-71
2022/03/29 00:43:30;;;;;;;17.08;10.02;;;13.40;99.90;;;;;;4999312;28;20060;-72
2022/03/29 00:45:57;;;;;;;21.23;10.60;;;13.40;99.90;;;;;;5022006;28;20040;-72
2022/03/29 00:48:23;;;;;;;17.10;10.43;;;13.30;99.90;;;;;;5015499;28;20037;-71
2022/03/29 00:50:53;;;;;;;17.00;10.43;;;13.30;99.90;;;;;;5000790;28;20084;-72
2022/03/29 00:53:22;;;;;;;16.55;10.15;;;13.30;99.90;;;;;;5002736;28;20034;-72
2022/03/29 00:55:52;;;;;;;25.63;10.98;;;13.30;99.90;;;;;;5018023;28;20037;-71
2022/03/29 00:58:19;;;;;;;15.98;10.07;;;13.30;99.90;;;;;;5033010;28;20115;-72
2022/03/29 01:00:47;;;;;;;19.92;9.75;;;13.30;99.90;;;;;;5016540;28;20140;-71
2022/03/29 01:03:15;;;;;;;14.15;8.45;;;13.40;99.90;;;;;;5018519;28;20433;-72
2022/03/29 01:05:41;;;;;;;14.95;8.13;;;13.40;99.90;;;;;;4998318;28;20045;-71
2022/03/29 01:08:08;;;;;;;17.75;8.52;;;13.40;99.90;;;;;;5021411;28;20038;-74
2022/03/29 01:10:35;;;;;;;16.30;9.13;;;13.40;99.90;;;;;;5046915;28;20042;-72
2022/03/29 01:13:01;;;;;;;17.65;8.10;;;13.40;99.90;;;;;;5030549;28;20034;-72
2022/03/29 01:15:29;;;;;;;11.73;8.52;;;13.30;99.90;;;;;;5000517;28;20477;-72
2022/03/29 01:17:56;;;;;;;14.52;7.80;;;13.30;99.90;;;;;;5015599;28;20042;-71
2022/03/29 01:20:30;;;;;;;16.20;7.85;;;13.30;99.90;;;;;;5029378;28;20064;-72
2022/03/29 01:22:58;;;;;;;16.77;7.82;;;13.30;99.90;;;;;;5011831;28;20045;-72
2022/03/29 01:25:27;;;;;;;13.85;7.65;;;13.30;99.90;;;;;;5031719;28;20026;-72
2022/03/29 01:27:54;;;;;;;15.75;8.15;;;13.30;99.90;;;;;;5029489;28;20525;-71
2022/03/29 01:30:21;;;;;;;12.65;7.68;;;13.30;99.90;;;;;;5014441;28;20037;-71
2022/03/29 01:32:50;;;;;;;14.70;7.60;;;13.30;99.90;;;;;;5016113;28;20045;-71
2022/03/29 01:35:17;;;;;;;16.45;7.97;;;13.30;99.90;;;;;;5018430;28;20044;-72
2022/03/29 01:37:43;;;;;;;14.80;8.00;;;13.30;99.90;;;;;;5001798;28;20451;-71
2022/03/29 01:40:15;;;;;;;15.43;7.90;;;13.20;99.90;;;;;;5000783;28;20037;-71
2022/03/29 01:42:50;;;;;;;12.13;7.22;;;13.20;99.90;;;;;;5004455;28;20554;-72
2022/03/29 01:45:17;;;;;;;12.32;7.60;;;13.20;99.90;;;;;;5027572;28;20426;-72
2022/03/29 01:47:44;;;;;;;12.52;7.90;;;13.20;99.90;;;;;;5018561;28;20044;-71
2022/03/29 01:50:14;;;;;;;14.60;8.10;;;13.20;99.90;;;;;;5017465;28;20038;-72
2022/03/29 01:52:45;;;;;;;15.80;7.72;;;13.10;99.90;;;;;;5034903;28;20103;-72
2022/03/29 01:55:13;;;;;;;13.77;7.63;;;13.10;99.90;;;;;;5001011;28;20045;-72
2022/03/29 01:57:41;;;;;;;16.88;8.02;;;13.10;99.90;;;;;;5012878;28;20544;-73
2022/03/29 02:02:56;;;;;;;13.95;7.38;;;13.10;99.90;;;;;;5016291;28;20052;-71
2022/03/29 02:05:23;;;;;;;14.68;8.23;;;13.10;99.90;;;;;;5019744;28;20068;-72
2022/03/29 02:07:53;;;;;;;14.30;7.50;;;13.10;99.90;;;;;;5014715;28;20068;-72
2022/03/29 02:10:20;;;;;;;15.55;7.82;;;13.10;99.90;;;;;;5015169;28;20107;-72
2022/03/29 02:12:47;;;;;;;11.63;7.55;;;13.10;99.90;;;;;;5032774;28;20138;-72
2022/03/29 02:15:14;;;;;;;20.17;7.78;;;13.10;99.90;;;;;;5033862;28;20120;-71
2022/03/29 02:17:41;;;;;;;12.45;7.13;;;13.10;99.90;;;;;;5022701;28;20440;-72
2022/03/29 02:20:07;;;;;;;12.45;7.18;;;13.10;99.90;;;;;;5020893;28;20033;-70
2022/03/29 02:22:34;;;;;;;9.90;6.47;;;13.10;99.90;;;;;;5037225;28;20481;-71
2022/03/29 02:25:00;;;;;;;11.82;6.47;;;13.10;99.90;;;;;;5018597;28;20034;-71
2022/03/29 02:27:26;;;;;;;11.68;4.53;;;13.10;99.90;;;;;;5031722;28;20034;-71
2022/03/29 02:29:52;;;;;;;8.52;3.80;;;13.10;98.50;;;;;;5020498;28;20473;-71
2022/03/29 02:32:18;;;;;;;6.65;3.40;;;13.10;96.40;;;;;;5017806;28;20508;-72
2022/03/29 02:34:45;;;;;;;10.05;3.63;;;13.20;95.70;;;;;;5000710;28;20428;-71
2022/03/29 02:37:12;;;;;;;8.38;3.92;;;13.10;95.90;;;;;;5019278;28;20030;-70
2022/03/29 02:39:38;;;;;;;8.05;3.55;;;13.20;95.70;;;;;;5019736;28;20103;-71
2022/03/29 02:42:06;;;;;;;8.90;3.60;;;13.20;95.40;;;;;;5018073;28;20049;-71
2022/03/29 02:44:33;;;;;;;7.63;3.28;;;13.20;95.80;;;;;;5030813;28;20026;-71
2022/03/29 02:46:59;;;;;;;9.23;4.05;;;13.20;95.10;;;;;;5036458;28;20025;-70
2022/03/29 02:49:25;;;;;;;7.00;3.47;;;13.20;94.90;;;;;;5015898;28;20168;-71
2022/03/29 02:51:52;;;;;;;6.20;3.60;;;13.30;95.00;;;;;;5018729;28;20072;-71
2022/03/29 02:54:22;;;;;;;7.93;3.67;;;13.30;94.50;;;;;;5037683;28;20116;-71
2022/03/29 02:56:48;;;;;;;7.75;4.43;;;13.20;94.40;;;;;;5006601;28;20044;-71
2022/03/29 02:59:14;;;;;;;7.38;4.15;;;13.30;94.80;;;;;;5014810;28;20041;-72
2022/03/29 03:01:41;;;;;;;11.38;4.38;;;13.30;95.10;;;;;;5015883;28;20038;-72
2022/03/29 03:04:13;;;;;;;11.20;5.07;;;13.20;95.70;;;;;;5017424;28;20511;-71
2022/03/29 03:06:42;;;;;;;8.15;5.00;;;13.20;96.20;;;;;;4999001;28;20516;-72
2022/03/29 03:09:09;;;;;;;10.48;5.28;;;13.20;96.80;;;;;;5033215;28;20041;-72
2022/03/29 03:11:36;;;;;;;11.13;4.95;;;13.10;96.40;;;;;;5007485;28;20038;-72
2022/03/29 03:14:03;;;;;;;12.35;5.40;;;13.10;96.60;;;;;;5018848;28;20042;-71
2022/03/29 03:16:29;;;;;;;10.18;5.50;;;13.10;97.10;;;;;;5019550;28;21041;-72
2022/03/29 03:18:55;;;;;;;11.07;6.03;;;13.00;97.50;;;;;;4999606;28;20053;-72
2022/03/29 03:21:22;;;;;;;9.33;5.47;;;13.00;97.90;;;;;;5036001;28;20103;-72
2022/03/29 03:23:48;;;;;;;15.15;5.30;;;13.00;98.10;;;;;;5020920;28;20131;-72
2022/03/29 03:26:15;;;;;;;13.65;5.78;;;13.00;98.20;;;;;;5016234;28;20469;-72
2022/03/29 03:28:42;;;;;;;11.02;5.90;;;12.90;98.20;;;;;;5018314;28;20033;-71
2022/03/29 03:31:08;;;;;;;13.13;5.68;;;12.90;98.30;;;;;;5019331;28;20034;-71
2022/03/29 03:33:34;;;;;;;10.85;5.30;;;12.90;98.00;;;;;;5017531;28;20034;-71
2022/03/29 03:36:00;;;;;;;11.52;5.13;;;12.80;97.80;;;;;;5018387;28;20045;-72
2022/03/29 03:38:27;;;;;;;12.05;4.93;;;12.70;97.90;;;;;;5019560;28;20037;-71
2022/03/29 03:40:52;;;;;;;16.63;5.60;;;12.70;98.00;;;;;;5019778;28;20034;-72
2022/03/29 03:43:18;;;;;;;11.75;5.57;;;12.70;98.20;;;;;;5036649;28;20048;-72
2022/03/29 03:45:45;;;;;;;9.77;5.57;;;12.70;98.20;;;;;;5019531;28;20132;-72
2022/03/29 03:48:12;;;;;;;13.93;4.93;;;12.70;98.20;;;;;;5016957;28;20045;-72
2022/03/29 03:50:37;;;;;;;12.23;5.43;;;12.70;98.10;;;;;;5021585;28;20060;-72
2022/03/29 03:53:06;;;;;;;13.15;5.18;;;12.70;98.30;;;;;;5021939;28;20041;-71
2022/03/29 03:55:32;;;;;;;12.20;5.68;;;12.70;98.50;;;;;;5001640;28;20037;-71
2022/03/29 03:57:58;;;;;;;9.05;5.35;;;12.70;98.80;;;;;;5016944;28;20182;-73
2022/03/29 04:00:24;;;;;;;11.75;5.60;;;12.60;98.80;;;;;;5017466;28;20088;-71
2022/03/29 04:02:50;;;;;;;16.13;5.28;;;12.60;98.90;;;;;;5032287;28;20716;-71
2022/03/29 04:05:16;;;;;;;12.68;5.60;;;12.60;98.90;;;;;;5034428;28;20486;-72
2022/03/29 04:07:43;;;;;;;9.40;5.28;;;12.60;99.00;;;;;;5032164;28;20041;-72
2022/03/29 04:10:10;;;;;;;12.68;5.45;;;12.50;99.20;;;;;;5017061;28;20034;-72
2022/03/29 04:12:38;;;;;;;12.73;5.22;;;12.50;99.30;;;;;;5018508;28;20041;-71
2022/03/29 04:15:05;;;;;;;18.73;5.45;;;12.50;99.40;;;;;;5015458;28;20164;-71
2022/03/29 04:17:31;;;;;;;14.43;5.47;;;12.50;99.60;;;;;;5034003;28;20037;-72
2022/03/29 04:20:00;;;;;;;18.45;5.57;;;12.50;99.60;;;;;;5014973;28;20040;-71
2022/03/29 04:22:27;;;;;;;12.10;5.90;;;12.50;99.60;;;;;;5015395;28;20048;-72
2022/03/29 04:24:53;;;;;;;19.65;5.72;;;12.40;99.80;;;;;;5015846;28;20092;-72
2022/03/29 04:27:18;;;;;;;14.88;5.80;;;12.40;99.90;;;;;;5030942;28;20034;-71
2022/03/29 04:29:44;;;;;;;12.77;5.35;;;12.40;99.90;;;;;;5035284;28;20500;-71
2022/03/29 04:32:10;;;;;;;13.82;5.72;;;12.40;99.90;;;;;;5015004;28;20083;-71
2022/03/29 04:34:36;;;;;;;13.25;6.32;;;12.40;99.90;;;;;;5013591;28;20093;-72
2022/03/29 04:37:02;;;;;;;11.38;5.13;;;12.50;99.80;;;;;;5030713;28;20026;-71
2022/03/29 04:39:30;;;;;;;15.07;5.32;;;12.50;99.50;;;;;;5030467;28;20034;-71
2022/03/29 04:41:58;;;;;;;13.10;5.90;;;12.50;99.50;;;;;;5032218;28;20576;-71
2022/03/29 04:44:24;;;;;;;14.27;5.22;;;12.50;99.60;;;;;;5036303;28;20038;-71
2022/03/29 04:46:50;;;;;;;12.52;5.50;;;12.50;99.60;;;;;;5015215;28;20480;-72
2022/03/29 04:49:15;;;;;;;10.85;5.68;;;12.60;99.50;;;;;;5032199;28;20147;-73
2022/03/29 04:51:41;;;;;;;13.57;5.10;;;12.60;99.30;;;;;;4994109;28;20561;-73
2022/03/29 04:54:07;;;;;;;11.77;5.45;;;12.60;99.20;;;;;;5016630;28;20041;-72
2022/03/29 04:56:33;;;;;;;10.10;5.28;;;12.60;99.10;;;;;;5018444;28;20038;-71
2022/03/29 04:58:59;;;;;;;13.35;5.38;;;12.60;99.10;;;;;;5032104;28;20034;-71
2022/03/29 05:01:25;;;;;;;26.88;5.75;;;12.60;99.20;;;;;;5013716;28;20037;-71
2022/03/29 05:03:52;;;;;;;15.95;5.38;;;12.50;99.20;;;;;;5031525;28;20519;-72
2022/03/29 05:06:18;;;;;;;16.98;5.25;;;12.50;99.30;;;;;;5016614;28;20035;-72
2022/03/29 05:08:44;;;;;;;14.05;5.03;;;12.40;99.50;;;;;;5031633;28;20048;-71
2022/03/29 05:11:10;;;;;;;10.48;4.90;;;12.50;99.60;;;;;;4998008;28;20029;-71
2022/03/29 05:13:36;;;;;;;11.88;5.65;;;12.40;99.70;;;;;;5001213;28;20522;-72
2022/03/29 05:16:03;;;;;;;11.52;5.43;;;12.40;99.90;;;;;;5014259;28;20052;-72
2022/03/29 05:18:29;;;;;;;13.40;5.55;;;12.40;99.90;;;;;;5017550;28;20054;-72
2022/03/29 05:20:55;;;;;;;13.13;5.50;;;12.40;99.90;;;;;;5017333;28;20057;-72
2022/03/29 05:23:23;;;;;;;16.77;5.97;;;12.40;99.90;;;;;;5018420;28;20096;-71
2022/03/29 05:25:49;;;;;;;19.45;5.13;;;12.50;99.90;;;;;;5015979;28;20050;-72
2022/03/29 05:28:16;;;;;;;14.40;5.20;;;12.50;99.90;;;;;;5034555;28;20030;-72
2022/03/29 05:30:42;;;;;;;18.65;4.95;;;12.40;99.90;;;;;;5016395;28;20104;-72
2022/03/29 05:33:15;;;;;;;21.02;5.35;;;12.50;99.80;;;;;;4994694;28;20042;-72
2022/03/29 05:35:43;;;;;;;14.75;5.68;;;12.50;99.70;;;;;;5031587;28;20034;-73
2022/03/29 05:38:09;;;;;;;15.20;5.40;;;12.50;99.60;;;;;;5034487;28;20037;-74
2022/03/29 05:40:35;;;;;;;14.85;5.75;;;12.50;99.60;;;;;;5013725;28;20526;-72
2022/03/29 05:43:02;;;;;;;12.23;5.20;;;12.60;99.60;;;;;;5002530;28;20038;-72
2022/03/29 05:45:30;;;;;;;13.35;6.20;;;12.60;99.60;;;;;;5006137;28;20048;-74
2022/03/29 05:50:41;;;;;;;16.95;6.68;;;12.70;99.90;;;;;;5023481;28;20052;-72
2022/03/29 05:53:07;;;;;;;15.07;6.18;;;12.70;99.90;;;;;;5032166;28;20095;-73
2022/03/29 05:55:34;;;;;;;20.35;6.15;;;12.70;99.90;;;;;;5021867;28;20042;-73
2022/03/29 05:58:00;;;;;;;15.63;6.00;;;12.80;99.90;;;;;;5021866;28;20033;-72
2022/03/29 06:00:29;;;;;;;13.20;6.47;;;12.80;99.90;;;;;;5035147;28;20038;-72
2022/03/29 06:02:56;;;;;;;20.02;6.68;;;12.80;99.90;;;;;;5022195;28;20058;-72
2022/03/29 06:05:22;;;;;;;21.75;6.45;;;12.80;99.90;;;;;;5003139;28;20037;-72
2022/03/29 06:07:50;;;;;;;26.50;7.05;;;12.80;99.90;;;;;;5033403;28;20037;-71
2022/03/29 06:10:16;;;;;;;19.42;5.88;;;12.80;99.90;;;;;;4988319;28;20041;-71
2022/03/29 06:12:46;;;;;;;16.85;6.32;;;12.80;99.90;;;;;;5039206;28;20032;-72
2022/03/29 06:15:15;;;;;;;16.52;5.80;;;12.80;99.90;;;;;;5003154;28;20030;-72
2022/03/29 06:17:41;;;;;;;18.10;6.63;;;12.80;99.90;;;;;;5006609;28;20505;-73
2022/03/29 06:20:10;;;;;;;23.42;7.00;;;12.90;99.90;;;;;;5019376;28;20418;-72
2022/03/29 06:22:42;;;;;;;20.75;6.22;;;13.10;99.90;;;;;;5027555;28;20045;-73
2022/03/29 06:25:09;;;;;;;17.00;6.22;;;13.20;99.90;;;;;;5017467;28;20033;-74
2022/03/29 06:27:35;;;;;;;27.50;6.47;;;13.20;99.90;;;;;;5036423;28;20453;-73
2022/03/29 06:30:04;;;;;;;17.75;6.50;;;13.30;99.90;;;;;;5020294;28;20040;-73
2022/03/29 06:32:30;;;;;;;16.63;6.90;;;13.40;99.90;;;;;;5020324;28;20453;-72
2022/03/29 06:34:56;;;;;;;15.13;6.95;;;13.40;99.90;;;;;;5017688;28;20045;-72
2022/03/29 06:37:22;;;;;;;19.83;6.88;;;13.40;99.90;;;;;;5034086;28;20041;-72
2022/03/29 06:39:48;;;;;;;21.10;7.43;;;13.40;99.90;;;;;;5003198;28;20096;-71
2022/03/29 06:42:18;;;;;;;23.35;7.93;;;13.40;99.90;;;;;;5018358;28;20069;-72
2022/03/29 06:44:45;;;;;;;17.73;7.53;;;13.50;99.90;;;;;;5032519;28;20501;-72
2022/03/29 06:47:12;;;;;;;17.63;7.70;;;13.40;99.90;;;;;;4996066;28;20084;-76
2022/03/29 06:49:38;;;;;;;28.00;8.52;;;13.50;99.90;;;;;;5035053;28;20037;-72
2022/03/29 06:52:04;;;;;;;21.45;7.97;;;13.50;99.90;;;;;;5019745;28;20377;-72
2022/03/29 06:54:31;;;;;;;23.52;7.50;;;13.50;99.80;;;;;;5020805;28;20088;-72
2022/03/29 06:56:57;;;;;;;22.60;8.75;;;13.60;99.60;;;;;;5030930;28;20048;-72
2022/03/29 06:59:23;;;;;;;26.23;9.07;;;13.50;99.40;;;;;;5014951;28;20046;-72
2022/03/29 07:01:49;;;;;;;18.73;8.32;;;13.60;99.40;;;;;;5014719;28;20138;-73
2022/03/29 07:04:15;;;;;;;23.85;7.65;;;13.60;99.30;;;;;;5018564;28;20041;-72
2022/03/29 07:06:41;;;;;;;20.67;7.72;;;13.60;99.30;;;;;;5018275;28;20030;-73
2022/03/29 07:11:52;;;;;;;20.00;8.02;;;13.80;99.20;;;;;;5021226;28;20044;-72
2022/03/29 07:14:20;;;;;;;19.90;8.65;;;13.80;99.10;;;;;;5005019;28;20057;-72
2022/03/29 07:16:46;;;;;;;17.40;7.78;;;13.90;99.10;;;;;;5032659;28;20041;-72
2022/03/29 07:19:13;;;;;;;19.58;7.18;;;13.90;98.90;;;;;;5001260;28;20033;-72
2022/03/29 07:21:39;;;;;;;19.35;7.82;;;13.90;98.70;;;;;;5003008;28;20054;-72
2022/03/29 07:24:10;;;;;;;18.88;7.53;;;13.90;98.70;;;;;;5017508;28;20037;-72
2022/03/29 07:26:37;;;;;;;19.67;7.57;;;13.90;98.50;;;;;;5032167;28;20250;-72
2022/03/29 07:29:04;;;;;;;18.33;7.10;;;13.90;98.30;;;;;;4997160;28;20596;-71
2022/03/29 07:31:31;;;;;;;22.42;7.20;;;14.00;98.00;;;;;;5032662;28;20037;-72
2022/03/29 07:33:58;;;;;;;23.45;6.80;;;14.00;97.80;;;;;;5003160;28;20061;-73
2022/03/29 07:36:24;;;;;;;18.90;6.68;;;14.00;97.60;;;;;;5019194;28;20037;-71
2022/03/29 07:38:50;;;;;;;19.20;6.55;;;14.00;97.40;;;;;;5016495;28;20052;-71
2022/03/29 07:41:17;;;;;;;23.50;6.75;;;14.10;97.20;;;;;;5016185;28;20303;-71
2022/03/29 07:43:44;;;;;;;22.25;6.80;;;14.10;97.20;;;;;;5031737;28;20045;-72
2022/03/29 07:46:10;;;;;;;17.17;6.45;;;14.20;97.20;;;;;;5001655;28;20043;-72
2022/03/29 07:48:36;;;;;;;19.50;6.05;;;14.20;97.00;;;;;;5037864;28;20030;-72
2022/03/29 07:51:02;;;;;;;21.00;6.00;;;14.30;97.00;;;;;;5014679;28;20382;-72
2022/03/29 07:53:30;;;;;;;15.60;5.30;;;14.40;96.70;;;;;;5019232;28;20063;-73
2022/03/29 07:55:56;;;;;;;18.42;6.57;;;14.40;96.20;;;;;;5018038;28;20101;-72
2022/03/29 07:58:23;;;;;;;16.60;5.85;;;14.50;96.10;;;;;;5024457;28;20099;-72
2022/03/29 08:00:53;;;;;;;13.00;5.55;;;14.60;95.60;;;;;;5022094;28;20550;-72
2022/03/29 08:03:21;;;;;;;23.25;5.38;;;14.70;95.50;;;;;;5018253;28;20042;-73
2022/03/29 08:05:48;;;;;;;16.85;5.88;;;14.80;95.40;;;;;;5017651;28;20045;-73
2022/03/29 08:08:17;;;;;;;15.73;5.30;;;15.00;95.30;;;;;;5033161;28;20081;-74
2022/03/29 08:10:45;;;;;;;15.27;6.43;;;15.30;95.10;;;;;;5019425;28;20033;-73
2022/03/29 08:13:11;;;;;;;18.92;6.07;;;15.50;95.00;;;;;;5032072;28;20056;-73
2022/03/29 08:15:39;;;;;;;18.92;5.75;;;15.80;94.70;;;;;;5001498;28;20084;-73
2022/03/29 08:18:06;;;;;;;17.20;6.32;;;15.90;94.60;;;;;;5018473;28;20038;-73
2022/03/29 08:20:33;;;;;;;21.60;6.45;;;15.90;94.60;;;;;;5018212;28;20034;-73
2022/03/29 08:23:00;;;;;;;22.80;6.20;;;16.00;94.20;;;;;;5018534;28;20518;-73
2022/03/29 08:25:29;;;;;;;26.48;6.30;;;16.10;94.20;;;;;;4985469;28;20041;-74
2022/03/29 08:27:56;;;;;;;17.58;5.38;;;16.10;94.60;;;;;;5011000;28;20672;-73
2022/03/29 08:30:23;;;;;;;18.73;5.50;;;16.20;94.60;;;;;;5011849;28;21568;-72
2022/03/29 08:32:49;;;;;;;21.77;5.47;;;16.30;94.80;;;;;;5014197;28;20033;-73
2022/03/29 08:35:15;;;;;;;23.58;6.50;;;16.30;94.70;;;;;;4997308;28;20077;-73
2022/03/29 08:37:42;;;;;;;22.63;6.20;;;16.50;94.90;;;;;;5018243;28;20111;-72
2022/03/29 08:40:12;;;;;;;23.85;6.47;;;16.40;95.00;;;;;;4990748;28;20054;-73
2022/03/29 08:42:44;;;;;;;24.02;6.25;;;16.50;95.10;;;;;;4994251;28;20044;-72
2022/03/29 08:45:11;;;;;;;22.20;6.10;;;16.50;95.40;;;;;;5027134;28;20041;-73
2022/03/29 08:47:40;;;;;;;18.00;5.72;;;16.50;95.80;;;;;;5012192;28;20055;-73
2022/03/29 08:50:09;;;;;;;29.48;5.85;;;16.60;96.10;;;;;;5046601;28;20904;-73
2022/03/29 08:52:35;;;;;;;26.83;7.00;;;16.70;96.40;;;;;;5022505;28;20068;-73
2022/03/29 08:55:03;;;;;;;28.17;8.07;;;17.00;96.90;;;;;;5017375;28;20144;-73
2022/03/29 08:57:31;;;;;;;30.27;7.50;;;17.10;96.90;;;;;;5007678;28;20526;-73
2022/03/29 08:59:58;;;;;;;23.08;7.05;;;17.20;97.40;;;;;;5003252;28;20045;-73
2022/03/29 09:02:33;;;;;;;28.08;7.20;;;17.10;97.80;;;;;;5016519;28;20501;-75
2022/03/29 09:05:15;;;;;;;34.97;7.30;;;17.00;98.30;;;;;;5007826;28;20161;-74
2022/03/29 09:08:01;;;;;;;27.40;7.50;;;16.90;98.90;;;;;;5016556;28;20041;-73
2022/03/29 09:10:45;;;;;;;26.70;6.72;;;16.80;99.40;;;;;;4996323;28;20046;-73
2022/03/29 09:13:19;;;;;;;32.63;8.60;;;16.70;99.90;;;;;;5003559;28;20047;-74
2022/03/29 09:15:51;;;;;;;29.95;8.02;;;16.60;99.90;;;;;;4986853;28;20034;-72
2022/03/29 09:18:17;;;;;;;27.95;7.70;;;16.60;99.90;;;;;;5008597;28;20081;-73
2022/03/29 09:20:45;;;;;;;31.25;7.63;;;16.60;99.90;;;;;;4997592;28;20084;-73
2022/03/29 09:23:14;;;;;;;28.05;7.13;;;16.70;99.90;;;;;;4988352;28;20450;-72
2022/03/29 09:25:47;;;;;;;29.15;7.38;;;16.70;99.70;;;;;;4994307;28;20135;-73
2022/03/29 09:28:15;;;;;;;;;;;16.70;99.80;;;;;;5006707;28;20050;-72
2022/03/29 09:30:46;;;;;;;33.35;6.63;;;16.70;99.90;;;;;;5003681;28;19921;-72
2022/03/29 09:33:15;;;;;;;21.27;6.47;;;16.80;99.90;;;;;;4988287;28;20050;-73
2022/03/29 09:36:07;;;;;;;22.13;6.80;;;16.90;99.90;;;;;;5006507;28;20207;-74
2022/03/29 09:38:37;;;;;;;22.58;6.47;;;16.90;99.90;;;;;;4988715;28;20042;-73
2022/03/29 09:41:19;;;;;;;23.52;6.32;;;16.70;99.90;;;;;;5011339;28;20046;-73
2022/03/29 09:43:58;;;;;;;26.92;7.53;;;16.30;99.90;;;;;;4987105;28;20080;-73
2022/03/29 09:46:26;;;;;;;21.23;6.65;;;16.30;99.90;;;;;;5008871;28;20099;-74
2022/03/29 09:48:59;;;;;;;25.73;6.53;;;16.20;99.90;;;;;;4990719;28;20448;-74
2022/03/29 09:51:27;;;;;;;22.50;6.50;;;16.30;99.90;;;;;;4987497;28;20168;-72
2022/03/29 09:53:58;;;;;;;24.50;6.30;;;16.40;99.90;;;;;;4988944;28;20081;-73
2022/03/29 09:56:30;;;;;;;24.92;6.10;;;16.50;99.90;;;;;;4987259;28;20060;-72
2022/03/29 09:59:16;;;;;;;19.23;6.18;;;16.70;99.90;;;;;;4972967;28;20038;-72
2022/03/29 10:01:47;;;;;;;28.95;6.88;;;16.80;99.90;;;;;;4977916;28;20038;-73
2022/03/29 10:04:16;;;;;;;21.60;5.78;;;17.00;99.90;;;;;;5004859;28;20493;-73
2022/03/29 10:06:45;;;;;;;24.98;6.75;;;17.20;99.90;;;;;;4995871;28;20608;-73
2022/03/29 10:09:29;;;;;;;28.90;7.53;;;17.40;99.90;;;;;;4974051;28;20026;-72
2022/03/29 10:11:57;;;;;;;26.17;6.82;;;17.60;99.90;;;;;;4990608;28;20457;-74
2022/03/29 10:14:25;;;;;;;23.50;6.70;;;17.80;99.90;;;;;;4988967;28;20037;-72
2022/03/29 10:16:56;;;;;;;27.17;7.05;;;17.60;99.90;;;;;;4974555;28;20072;-73
2022/03/29 10:19:23;;;;;;;24.35;7.05;;;17.60;99.90;;;;;;4989558;28;20556;-74
2022/03/29 10:21:50;;;;;;;18.65;6.80;;;17.50;99.90;;;;;;5003191;28;20033;-73
2022/03/29 10:24:18;;;;;;;21.45;7.22;;;17.50;99.90;;;;;;5004135;28;20088;-73
2022/03/29 10:26:46;;;;;;;23.67;7.07;;;17.30;99.90;;;;;;4992369;28;20034;-74
2022/03/29 10:29:12;;;;;;;15.88;7.18;;;17.50;99.90;;;;;;4987883;28;20469;-73
2022/03/29 10:31:56;;;;;;;17.95;6.45;;;17.20;99.90;;;;;;4988665;28;20038;-72
2022/03/29 10:34:37;;;;;;;27.30;6.88;;;17.10;99.90;;;;;;4984970;28;21021;-73
2022/03/29 10:37:20;;;;;;;21.10;6.75;;;17.00;99.90;;;;;;4984443;28;20088;-73
2022/03/29 10:39:48;;;;;;;20.00;6.50;;;16.70;99.90;;;;;;4991618;28;20734;-74
2022/03/29 10:42:31;;;;;;;22.48;7.32;;;16.50;99.90;;;;;;4968721;28;20050;-72
2022/03/29 10:45:16;;;;;;;27.23;6.47;;;16.50;99.90;;;;;;4985755;28;20034;-73
2022/03/29 10:47:48;;;;;;;20.92;6.70;;;16.40;99.90;;;;;;4986720;28;20030;-72
2022/03/29 10:50:16;;;;;;;24.25;7.15;;;16.30;99.90;;;;;;5004705;28;20034;-75
2022/03/29 10:52:48;;;;;;;23.02;6.68;;;16.20;99.90;;;;;;4983937;28;20054;-73
2022/03/29 10:55:15;;;;;;;;;;;16.10;99.90;;;;;;5022623;28;20460;-72
2022/03/29 10:58:03;;;;;;;22.02;7.68;;;16.10;99.90;;;;;;4997135;28;19968;-76
2022/03/29 11:00:31;;;;;;;20.23;6.50;;;16.10;99.90;;;;;;5002840;28;20085;-74
2022/03/29 11:03:10;;;;;;;24.33;6.97;;;16.10;99.90;;;;;;4991951;28;20046;-73
2022/03/29 11:06:10;;;;;;;22.05;7.28;;;15.90;99.90;;;;;;4996671;28;20121;-73
2022/03/29 11:08:47;;;;;;;27.40;7.45;;;15.70;99.90;;;;;;5005252;28;20041;-72
2022/03/29 11:11:41;;;;;;;21.05;7.65;;;15.70;99.90;;;;;;4989124;28;20034;-72
2022/03/29 11:14:35;;;;;;;17.90;6.38;;;15.50;99.90;;;;;;5018826;28;20029;-72
2022/03/29 11:17:04;;;;;;;21.05;6.85;;;15.50;99.90;;;;;;4978994;28;20531;-73
2022/03/29 11:19:50;;;;;;;29.83;6.50;;;15.50;99.90;;;;;;5004923;28;20126;-72
2022/03/29 11:22:33;;;;;;;22.63;7.22;;;15.40;99.90;;;;;;4980558;28;20038;-73
2022/03/29 11:25:10;;;;;;;20.90;6.47;;;15.40;99.90;;;;;;5009325;28;20145;-73
2022/03/29 11:27:37;;;;;;;23.20;6.93;;;15.30;99.90;;;;;;5000824;28;20039;-74
2022/03/29 11:30:09;;;;;;;25.63;7.93;;;15.30;99.90;;;;;;4975348;28;20046;-75
2022/03/29 11:32:36;;;;;;;21.60;7.10;;;15.30;99.90;;;;;;4989446;28;20046;-72
2022/03/29 11:35:07;;;;;;;24.92;7.25;;;15.30;99.90;;;;;;5000290;28;20045;-73
2022/03/29 11:37:38;;;;;;;27.75;8.15;;;15.20;99.90;;;;;;4989257;28;20066;-73
2022/03/29 11:40:06;;;;;;;21.88;7.22;;;15.20;99.90;;;;;;4989846;28;20045;-74
2022/03/29 11:42:53;;;;;;;22.67;7.07;;;15.40;99.90;;;;;;4986443;28;20057;-72
2022/03/29 11:45:25;;;;;;;20.45;6.30;;;15.50;99.90;;;;;;5005422;28;20033;-72
2022/03/29 11:47:53;;;;;;;24.05;7.32;;;15.60;99.90;;;;;;5006997;28;20045;-73
2022/03/29 11:50:38;;;;;;;21.60;6.80;;;15.70;99.90;;;;;;4991025;28;20052;-73
2022/03/29 11:53:24;;;;;;;18.70;6.55;;;15.80;99.90;;;;;;4987542;28;20049;-73
2022/03/29 11:56:07;;;;;;;24.10;6.90;;;15.80;99.90;;;;;;4990552;28;20106;-73
2022/03/29 11:58:33;;;;;;;24.42;6.80;;;15.80;99.90;;;;;;4987137;28;20046;-71
2022/03/29 12:01:04;;;;;;;21.85;6.57;;;15.80;99.90;;;;;;4975761;28;20048;-72
2022/03/29 12:03:35;;;;;;;23.38;7.28;;;15.80;99.90;;;;;;4995269;28;20121;-72
2022/03/29 12:06:14;;;;;;;20.20;6.60;;;15.80;99.90;;;;;;5001567;28;20034;-73
2022/03/29 12:08:52;;;;;;;21.73;6.85;;;15.90;99.90;;;;;;5000869;28;20045;-72
2022/03/29 12:11:22;;;;;;;23.77;7.47;;;16.10;99.90;;;;;;5010157;28;20034;-73
2022/03/29 12:13:59;;;;;;;22.83;5.88;;;16.00;99.90;;;;;;5009758;28;20396;-73
2022/03/29 12:16:26;;;;;;;18.52;5.80;;;16.00;99.90;;;;;;5031714;28;20037;-73
2022/03/29 12:18:52;;;;;;;24.88;5.90;;;16.10;99.90;;;;;;5000134;28;20041;-73
2022/03/29 12:21:20;;;;;;;19.75;6.38;;;16.20;99.90;;;;;;5017627;28;20695;-72
2022/03/29 12:23:48;;;;;;;20.13;6.00;;;16.00;99.90;;;;;;5015310;28;20374;-73
2022/03/29 12:26:17;;;;;;;25.25;6.78;;;15.90;99.90;;;;;;5003481;28;20069;-73
2022/03/29 12:28:44;;;;;;;30.35;6.55;;;16.00;99.90;;;;;;5021725;28;20042;-73
2022/03/29 12:31:15;;;;;;;25.67;6.25;;;16.00;99.90;;;;;;5029981;28;20040;-72
2022/03/29 12:33:42;;;;;;;24.70;6.25;;;15.90;99.90;;;;;;5003068;28;20119;-73
2022/03/29 12:36:14;;;;;;;25.67;6.00;;;16.10;99.90;;;;;;5018970;28;20539;-74
2022/03/29 12:38:41;;;;;;;24.90;6.57;;;16.10;99.90;;;;;;5029224;28;20034;-73
2022/03/29 12:41:08;;;;;;;22.95;6.75;;;16.20;99.90;;;;;;5031499;28;20574;-73
2022/03/29 12:43:35;;;;;;;24.02;6.43;;;16.50;99.90;;;;;;4998450;28;20052;-72
2022/03/29 12:46:09;;;;;;;23.50;6.50;;;16.60;99.90;;;;;;5023688;28;20048;-73
2022/03/29 12:48:41;;;;;;;24.58;5.70;;;16.60;99.90;;;;;;4999536;28;20072;-72
2022/03/29 12:51:08;;;;;;;21.83;6.10;;;16.60;99.90;;;;;;5016750;28;20034;-73
2022/03/29 12:53:35;;;;;;;19.40;6.22;;;16.70;99.90;;;;;;5015954;28;20041;-72
2022/03/29 12:56:04;;;;;;;21.77;6.15;;;17.20;99.90;;;;;;5003036;28;20062;-73